Date,TemperatureHighF,TemperatureAvgF,TemperatureLowF,DewpointHighF,DewpointAvgF,DewpointLowF,HumidityHigh,HumidityAvg,HumidityLow,PressureMaxIn,PressureMinIn,WindSpeedMaxMPH,WindSpeedAvgMPH,GustSpeedMaxMPH,PrecipitationSumIn
2013-11-1,52.1,43.7,39.0,41.9,38.1,35.5,91,81,60,29.96,29.52,17,5,24,0.02
2013-11-2,55.4,42.5,31.6,37.5,33.2,29.5,93,72,42,30.11,29.97,7,2,13,0.00
2013-11-3,56.5,46.3,36.6,37.8,33.8,30.2,79,63,46,29.99,29.65,18,4,28,0.00
2013-11-4,49.6,42.5,35.1,40.1,33.9,28.7,90,73,48,30.14,29.70,14,2,21,0.02
2013-11-5,37.9,33.0,29.4,30.8,28.8,25.8,96,85,63,30.18,30.02,4,0,10,0.00
2013-11-6,33.2,29.2,23.5,29.7,27.0,21.7,96,92,84,30.19,30.09,1,0,2,0.01
2013-11-7,36.8,29.6,22.7,29.7,25.2,20.9,96,84,65,30.35,30.16,8,1,13,0.02
2013-11-8,51.8,40.6,27.3,42.8,33.7,23.5,88,76,69,30.16,29.60,15,4,22,0.14
2013-11-9,48.1,40.9,32.1,36.7,32.2,25.4,87,71,51,30.33,29.79,21,6,24,0.00
2013-11-10,47.9,35.0,22.9,35.2,28.2,20.6,92,77,56,30.35,30.06,8,1,14,0.00
2013-11-11,40.1,20.7,10.1,35.0,13.3,5.2,89,73,61,30.75,30.08,17,4,22,0.00
2013-11-12,33.2,19.2,7.2,15.0,10.1,3.9,88,69,43,30.79,30.39,6,1,11,0.00
2013-11-13,61.2,39.1,23.5,36.1,27.4,14.8,80,64,39,30.39,29.88,13,2,15,0.00
2013-11-14,55.7,43.0,34.7,41.4,35.8,30.5,88,76,53,29.90,29.82,8,1,14,0.00
2013-11-15,55.9,41.8,31.4,42.0,35.1,29.3,93,78,56,29.83,29.50,8,2,15,0.00
2013-11-16,54.6,44.7,36.7,47.0,38.9,33.2,97,81,56,29.50,29.21,8,2,13,0.00
2013-11-17,47.3,41.2,34.1,38.7,36.1,30.3,94,82,69,29.97,29.34,17,5,21,0.00
2013-11-18,46.8,34.2,26.5,30.5,27.4,23.8,90,77,51,30.20,29.97,10,2,13,0.00
2013-11-19,56.2,44.1,31.0,36.0,30.2,26.3,87,61,41,30.11,29.73,13,4,25,0.00
2013-11-20,51.3,44.8,31.4,35.8,31.9,27.8,87,62,44,30.02,29.72,8,2,15,0.00
2013-11-21,31.3,22.3,16.4,28.3,16.4,9.9,89,78,67,30.58,30.02,25,9,34,0.00
2013-11-22,31.0,18.1,5.2,15.5,9.3,1.4,85,69,48,30.65,30.49,10,2,17,0.00
2013-11-23,18.2,10.3,4.1,7.3,2.0,-0.4,82,70,46,30.85,30.63,7,1,15,0.00
2013-11-24,38.5,23.7,9.3,23.6,14.3,2.2,75,67,53,30.62,30.00,10,3,24,0.00
2013-11-25,39.7,32.0,26.1,28.4,24.7,20.5,86,75,57,30.15,29.95,14,4,24,0.00
2013-11-26,30.0,22.3,14.9,22.8,11.1,5.7,77,62,45,30.39,30.15,20,8,28,0.00
2013-11-27,29.9,19.1,7.2,17.9,10.4,3.6,87,70,51,30.39,29.91,11,2,17,0.00
2013-11-28,27.5,22.7,14.9,19.0,15.5,9.8,82,74,62,30.43,30.02,17,4,25,0.00
2013-11-29,37.7,24.7,13.2,24.3,17.6,8.4,83,75,57,30.43,30.03,13,2,18,0.00
2013-11-30,46.8,34.0,23.7,31.5,26.1,21.1,92,74,51,30.16,30.00,7,1,13,0.00